Time;durP1;ratioP1;P1;durP2;ratioP2;P2;SDS_P1;SDS_P2;PMS_P1;PMS_P2;Temp;Humidity;BMP_temperature;BMP_pressure;BME280_temperature;BME280_humidity;BME280_pressure;Samples;Min_cycle;Max_cycle;Signal;HPM_P1;HPM_P2
2023/11/09 17:49:48;;;;;;;12.73;11.97;;;11.10;99.90;;;;;;5846658;23;20497;-43
2023/11/09 17:52:14;;;;;;;12.33;11.63;;;11.10;99.90;;;;;;4794740;29;20502;-44
2023/11/09 17:54:40;;;;;;;12.43;11.70;;;11.10;99.90;;;;;;4802604;29;20957;-41
2023/11/09 17:57:06;;;;;;;13.57;12.80;;;11.10;99.90;;;;;;4806038;29;20442;-41
2023/11/09 17:59:32;;;;;;;12.60;11.90;;;11.10;99.90;;;;;;4805440;29;20436;-40
2023/11/09 18:01:57;;;;;;;12.23;11.53;;;11.10;99.90;;;;;;4806398;29;20913;-41
2023/11/09 18:04:25;;;;;;;13.40;12.60;;;11.20;99.90;;;;;;4808979;29;20210;-39
2023/11/09 18:06:51;;;;;;;12.17;11.37;;;11.20;99.90;;;;;;4807477;29;20247;-40
2023/11/09 18:09:16;;;;;;;12.50;11.50;;;11.20;99.90;;;;;;4810292;29;20960;-39
2023/11/09 18:11:43;;;;;;;12.10;11.40;;;11.20;99.90;;;;;;4809118;29;20493;-40
2023/11/09 18:14:10;;;;;;;11.93;11.27;;;11.20;99.90;;;;;;4816909;29;20195;-40
2023/11/09 18:16:36;;;;;;;11.40;10.70;;;11.10;1.00;;;;;;4813108;29;20453;-40
2023/11/09 18:19:02;;;;;;;13.07;12.23;;;11.20;1.00;;;;;;4810401;29;20452;-40
2023/11/09 18:21:29;;;;;;;13.23;12.33;;;11.20;1.00;;;;;;4811535;29;20198;-40
2023/11/09 18:23:56;;;;;;;13.03;12.30;;;11.20;1.00;;;;;;4810459;29;20486;-40
2023/11/09 18:26:21;;;;;;;12.60;11.77;;;11.20;1.00;;;;;;4804717;29;20462;-43
2023/11/09 18:28:47;;;;;;;12.07;11.43;;;11.20;1.00;;;;;;4817283;29;20477;-39
2023/11/09 18:31:13;;;;;;;12.30;11.60;;;11.20;1.00;;;;;;4803547;29;20228;-41
2023/11/09 18:33:38;;;;;;;12.97;12.20;;;11.20;1.00;;;;;;4814806;29;20297;-41
2023/11/09 18:36:04;;;;;;;12.10;11.30;;;11.20;1.00;;;;;;4801590;29;20255;-44
2023/11/09 18:38:30;;;;;;;11.67;10.97;;;11.20;1.00;;;;;;4817376;29;20221;-40
2023/11/09 18:40:56;;;;;;;11.47;10.80;;;11.20;1.00;;;;;;4806923;29;20209;-40
2023/11/09 18:43:23;;;;;;;11.40;10.80;;;11.20;1.00;;;;;;4805050;29;20266;-40
2023/11/09 18:45:49;;;;;;;12.73;12.03;;;11.20;1.00;;;;;;4800514;29;20456;-42
2023/11/09 18:48:17;;;;;;;11.73;11.13;;;11.20;1.00;;;;;;4798760;29;20568;-40
2023/11/09 18:50:43;;;;;;;13.03;12.27;;;11.20;1.00;;;;;;4800528;29;20487;-40
2023/11/09 18:53:09;;;;;;;12.47;11.57;;;11.20;1.00;;;;;;4804101;29;20564;-41
2023/11/09 18:55:35;;;;;;;12.80;12.00;;;11.20;1.00;;;;;;4803118;29;20914;-40
2023/11/09 18:58:03;;;;;;;11.87;11.17;;;11.30;1.00;;;;;;4807243;29;20911;-44
2023/11/09 19:00:29;;;;;;;12.23;11.43;;;11.30;1.00;;;;;;4803097;29;20460;-41
2023/11/09 19:02:55;;;;;;;12.50;11.67;;;11.30;1.00;;;;;;4802425;29;20471;-42
2023/11/09 19:05:20;;;;;;;12.63;11.93;;;11.20;99.90;;;;;;4797538;29;20807;-42
2023/11/09 19:07:48;;;;;;;13.57;12.70;;;11.20;99.90;;;;;;4807668;29;20263;-41
2023/11/09 19:10:13;;;;;;;12.60;11.90;;;11.30;99.90;;;;;;4803528;29;20253;-42
2023/11/09 19:12:39;;;;;;;12.73;11.93;;;11.30;1.00;;;;;;4809947;29;20451;-43
2023/11/09 19:15:07;;;;;;;12.17;11.47;;;11.30;1.00;;;;;;4809163;29;20274;-43
2023/11/09 19:17:33;;;;;;;13.30;12.50;;;11.20;1.00;;;;;;4809396;29;20199;-41
2023/11/09 19:20:07;;;;;;;12.60;11.80;;;11.20;1.00;;;;;;4803368;29;20443;-44
2023/11/09 19:22:35;;;;;;;13.20;12.50;;;11.00;1.00;;;;;;4810032;29;20419;-41
2023/11/09 19:25:03;;;;;;;13.40;12.50;;;10.90;1.00;;;;;;4805239;29;20448;-45
2023/11/09 19:27:29;;;;;;;13.53;12.80;;;10.80;1.00;;;;;;4801582;29;20522;-42
2023/11/09 19:29:56;;;;;;;14.07;13.37;;;10.70;1.00;;;;;;4802759;29;20589;-41
2023/11/09 19:32:22;;;;;;;14.30;13.47;;;10.60;99.90;;;;;;4797383;29;20803;-42
2023/11/09 19:34:48;;;;;;;14.37;13.47;;;10.50;99.90;;;;;;4799467;29;20473;-44
2023/11/09 19:37:13;;;;;;;15.23;14.33;;;10.40;1.00;;;;;;4802313;29;20824;-41
2023/11/09 19:39:39;;;;;;;14.53;13.73;;;10.40;1.00;;;;;;4804841;29;20193;-41
2023/11/09 19:42:07;;;;;;;15.60;14.60;;;10.20;99.90;;;;;;4801087;29;20194;-41
2023/11/09 19:44:32;;;;;;;15.00;14.10;;;10.30;99.90;;;;;;4802175;29;20463;-45
2023/11/09 19:46:58;;;;;;;14.67;13.77;;;10.20;1.00;;;;;;4801948;29;20478;-42
2023/11/09 19:49:24;;;;;;;15.13;14.23;;;10.20;99.90;;;;;;4811724;29;20487;-41
2023/11/09 19:51:52;;;;;;;14.73;13.83;;;10.20;1.00;;;;;;4805780;29;20277;-44
2023/11/09 19:54:18;;;;;;;16.00;15.00;;;10.20;1.00;;;;;;4802337;29;20182;-44
2023/11/09 19:56:44;;;;;;;15.10;14.03;;;10.10;99.90;;;;;;4804237;29;20444;-41
2023/11/09 19:59:09;;;;;;;15.20;14.30;;;10.10;99.90;;;;;;4800532;29;20934;-44
2023/11/09 20:01:35;;;;;;;16.33;15.33;;;10.00;1.00;;;;;;4799469;29;20199;-44
2023/11/09 20:04:01;;;;;;;15.30;14.30;;;10.00;99.90;;;;;;4811120;29;20191;-40
2023/11/09 20:06:27;;;;;;;15.67;14.67;;;10.00;55.40;;;;;;4810064;29;20258;-42
2023/11/09 20:08:52;;;;;;;14.80;13.90;;;10.00;99.90;;;;;;4799044;29;20585;-41
2023/11/09 20:11:18;;;;;;;15.80;14.67;;;10.00;1.00;;;;;;4810303;29;20476;-42
2023/11/09 20:13:44;;;;;;;15.43;14.53;;;10.00;1.00;;;;;;4801251;29;20195;-41
2023/11/09 20:16:10;;;;;;;16.03;15.03;;;9.90;99.90;;;;;;4805898;29;20190;-40
2023/11/09 20:18:36;;;;;;;15.80;14.70;;;9.90;99.90;;;;;;4807532;29;21165;-40
2023/11/09 20:21:01;;;;;;;16.40;15.40;;;9.90;99.90;;;;;;4815829;29;20195;-41
2023/11/09 20:23:27;;;;;;;16.27;15.17;;;9.90;1.00;;;;;;4804480;29;20195;-46
2023/11/09 20:25:53;;;;;;;15.77;14.77;;;9.90;99.90;;;;;;4814212;29;20217;-40
2023/11/09 20:28:18;;;;;;;17.53;16.43;;;9.90;1.00;;;;;;4803525;29;20194;-41
2023/11/09 20:30:45;;;;;;;17.20;16.00;;;9.90;1.00;;;;;;4804755;29;20218;-40
2023/11/09 20:33:10;;;;;;;16.63;15.70;;;9.90;1.00;;;;;;4808108;29;20187;-40
2023/11/09 20:35:38;;;;;;;17.47;16.37;;;9.80;1.00;;;;;;4802677;29;20450;-38
2023/11/09 20:38:07;;;;;;;16.60;15.50;;;9.80;1.00;;;;;;4801886;29;20448;-39
2023/11/09 20:40:32;;;;;;;17.17;16.07;;;9.80;1.00;;;;;;4807847;29;20442;-40
2023/11/09 20:42:59;;;;;;;16.60;15.50;;;9.80;1.00;;;;;;4805338;29;20954;-39
2023/11/09 20:45:26;;;;;;;16.77;15.67;;;9.80;1.00;;;;;;4806077;29;20432;-40
2023/11/09 20:47:53;;;;;;;17.17;15.87;;;9.70;1.00;;;;;;4801702;29;20475;-37
2023/11/09 20:50:21;;;;;;;16.07;15.07;;;9.70;1.00;;;;;;4808991;29;20507;-40
2023/11/09 20:52:47;;;;;;;17.30;16.20;;;9.70;1.00;;;;;;4838076;29;20434;-39
2023/11/09 20:55:17;;;;;;;17.63;16.43;;;9.70;1.00;;;;;;4842400;29;20917;-38
2023/11/09 20:57:44;;;;;;;17.07;15.90;;;9.60;1.00;;;;;;4843005;29;20185;-40
2023/11/09 21:00:11;;;;;;;16.60;15.60;;;9.60;1.00;;;;;;4842137;29;20422;-39
2023/11/09 21:02:36;;;;;;;17.03;16.03;;;9.60;1.00;;;;;;4847734;29;20423;-38
2023/11/09 21:05:05;;;;;;;18.50;17.13;;;9.50;1.00;;;;;;4842000;29;20834;-40
2023/11/09 21:07:38;;;;;;;18.00;16.70;;;9.50;1.00;;;;;;4839172;29;20188;-40
2023/11/09 21:10:09;;;;;;;18.70;17.37;;;9.50;1.00;;;;;;4845955;29;20517;-39
2023/11/09 21:12:37;;;;;;;18.50;17.40;;;9.50;1.00;;;;;;4840632;29;20425;-41
2023/11/09 21:15:04;;;;;;;17.03;15.97;;;9.50;1.00;;;;;;4841551;29;20407;-40
2023/11/09 21:17:30;;;;;;;18.33;17.13;;;9.50;1.00;;;;;;4841545;29;20193;-39
2023/11/09 21:19:56;;;;;;;18.07;16.87;;;9.50;1.00;;;;;;4843453;29;20782;-38
2023/11/09 21:22:21;;;;;;;15.60;14.60;;;9.50;1.00;;;;;;4845647;29;20971;-40
2023/11/09 21:24:51;;;;;;;17.07;16.07;;;9.50;1.00;;;;;;4857447;29;20449;-40
2023/11/09 21:27:17;;;;;;;17.63;16.43;;;9.50;1.00;;;;;;4856200;29;20205;-39
2023/11/09 21:29:43;;;;;;;16.93;15.90;;;9.50;1.00;;;;;;4842322;29;20525;-39
2023/11/09 21:32:08;;;;;;;17.00;15.90;;;9.50;1.00;;;;;;4845380;29;20581;-47
2023/11/09 21:34:38;;;;;;;16.67;15.70;;;9.50;1.00;;;;;;4857956;29;20673;-41
2023/11/09 21:37:06;;;;;;;16.60;15.50;;;9.40;1.00;;;;;;4857715;29;20184;-39
2023/11/09 21:39:32;;;;;;;17.20;16.00;;;9.50;1.00;;;;;;4856220;29;20453;-39
2023/11/09 21:42:08;;;;;;;16.47;15.40;;;9.40;1.00;;;;;;4856122;29;20947;-40
2023/11/09 21:44:34;;;;;;;16.60;15.53;;;9.40;1.00;;;;;;4857234;29;20231;-39
2023/11/09 21:47:00;;;;;;;17.00;15.90;;;9.40;1.00;;;;;;4857021;29;20433;-39
2023/11/09 21:49:26;;;;;;;17.60;16.30;;;9.40;1.00;;;;;;4858592;29;20557;-42
2023/11/09 21:51:51;;;;;;;17.17;16.07;;;9.40;1.00;;;;;;4854128;29;20244;-39
2023/11/09 21:54:17;;;;;;;16.37;15.47;;;9.40;99.90;;;;;;4856457;29;20192;-40
2023/11/09 21:56:43;;;;;;;17.77;16.57;;;9.40;99.90;;;;;;4858530;29;20655;-40
2023/11/09 21:59:11;;;;;;;16.90;15.90;;;9.40;99.90;;;;;;4858226;29;20509;-39
2023/11/09 22:01:38;;;;;;;16.13;15.13;;;9.40;99.90;;;;;;4850034;29;20208;-38
2023/11/09 22:04:04;;;;;;;16.77;15.67;;;9.40;99.90;;;;;;4855703;29;20459;-39
2023/11/09 22:06:35;;;;;;;17.20;16.10;;;9.40;99.90;;;;;;4854410;29;20449;-38
2023/11/09 22:09:01;;;;;;;16.50;15.37;;;9.30;99.90;;;;;;4854495;29;20469;-39
2023/11/09 22:11:27;;;;;;;15.30;14.40;;;9.40;99.90;;;;;;4842007;29;20468;-40
2023/11/09 22:13:53;;;;;;;15.50;14.60;;;9.30;99.90;;;;;;4858072;29;20425;-39
2023/11/09 22:16:19;;;;;;;16.20;15.10;;;9.40;99.90;;;;;;4857890;29;20421;-39
2023/11/09 22:18:44;;;;;;;15.53;14.57;;;9.30;99.90;;;;;;4841468;29;20445;-39
2023/11/09 22:21:24;;;;;;;15.60;14.50;;;9.30;99.90;;;;;;4858097;29;20632;-39
2023/11/09 22:23:54;;;;;;;15.80;14.90;;;9.30;99.90;;;;;;4850750;29;20196;-38
2023/11/09 22:26:20;;;;;;;15.13;14.23;;;9.40;99.90;;;;;;4858253;29;20430;-38
2023/11/09 22:28:45;;;;;;;16.40;15.40;;;9.40;99.90;;;;;;4858123;29;20497;-39
2023/11/09 22:31:11;;;;;;;15.27;14.27;;;9.40;99.90;;;;;;4843618;29;20477;-41
2023/11/09 22:33:37;;;;;;;15.63;14.53;;;9.40;99.90;;;;;;4849494;29;20228;-39
2023/11/09 22:36:03;;;;;;;15.57;14.53;;;9.30;99.90;;;;;;4854165;29;20189;-38
2023/11/09 22:38:29;;;;;;;15.83;14.83;;;9.30;99.90;;;;;;4853953;29;20543;-40
2023/11/09 22:40:54;;;;;;;15.00;13.90;;;9.40;99.90;;;;;;4853515;29;20521;-39
2023/11/09 22:43:20;;;;;;;15.07;14.17;;;9.40;99.90;;;;;;4839473;29;20679;-39
2023/11/09 22:45:47;;;;;;;15.00;14.20;;;9.40;99.90;;;;;;4846961;29;20211;-39
2023/11/09 22:48:14;;;;;;;14.07;13.17;;;9.40;99.90;;;;;;4857712;29;20188;-40
2023/11/09 22:50:40;;;;;;;15.80;14.70;;;9.40;99.90;;;;;;4855391;29;20589;-42
2023/11/09 22:53:05;;;;;;;16.50;14.97;;;9.40;99.90;;;;;;4857881;29;20500;-39
2023/11/09 22:55:31;;;;;;;15.43;14.27;;;9.50;99.90;;;;;;4857008;29;20204;-40
2023/11/09 22:57:56;;;;;;;14.70;13.90;;;9.50;80.20;;;;;;4857706;29;20192;-40
2023/11/09 23:00:35;;;;;;;15.33;14.43;;;9.50;1.00;;;;;;4850308;29;20227;-39
2023/11/09 23:03:02;;;;;;;14.93;14.07;;;9.50;1.00;;;;;;4836506;29;20647;-40
2023/11/09 23:05:28;;;;;;;15.17;14.27;;;9.50;1.00;;;;;;4857828;29;20474;-39
2023/11/09 23:07:54;;;;;;;15.13;14.13;;;9.60;1.00;;;;;;4856733;29;20449;-39
2023/11/09 23:10:20;;;;;;;14.27;13.47;;;9.60;1.00;;;;;;4857328;29;20557;-40
2023/11/09 23:12:45;;;;;;;14.47;13.47;;;9.60;99.90;;;;;;4852887;29;20308;-40
2023/11/09 23:15:14;;;;;;;14.90;14.00;;;9.70;99.90;;;;;;4841860;29;20192;-39
2023/11/09 23:17:43;;;;;;;14.87;13.97;;;9.70;1.00;;;;;;4856927;29;20201;-39
2023/11/09 23:20:12;;;;;;;13.90;13.10;;;9.70;1.00;;;;;;4857083;29;20425;-39
2023/11/09 23:22:44;;;;;;;15.00;14.10;;;9.80;1.00;;;;;;4855598;29;20456;-39
2023/11/09 23:25:11;;;;;;;15.00;14.10;;;9.80;99.90;;;;;;4857222;29;20425;-39
2023/11/09 23:27:37;;;;;;;15.10;14.30;;;9.80;1.00;;;;;;4854639;29;20520;-39
2023/11/09 23:30:04;;;;;;;15.80;14.80;;;9.80;1.00;;;;;;4838527;29;20457;-40
2023/11/09 23:32:30;;;;;;;16.40;15.40;;;9.80;26.60;;;;;;4842192;29;20450;-39
2023/11/09 23:34:55;;;;;;;15.87;14.87;;;9.70;1.00;;;;;;4852352;29;20430;-39
2023/11/09 23:37:21;;;;;;;15.97;14.97;;;9.80;1.00;;;;;;4856431;29;20813;-39
2023/11/09 23:39:47;;;;;;;15.53;14.63;;;9.80;99.90;;;;;;4855524;29;20656;-44
2023/11/09 23:42:14;;;;;;;16.40;15.40;;;9.70;1.00;;;;;;4855826;29;20429;-39
2023/11/09 23:44:42;;;;;;;16.50;15.37;;;9.70;1.00;;;;;;4856853;29;20429;-39
2023/11/09 23:47:13;;;;;;;16.57;15.60;;;9.70;1.00;;;;;;4856344;29;20444;-39
2023/11/09 23:49:39;;;;;;;15.63;14.67;;;9.70;1.00;;;;;;4852467;29;20448;-39
2023/11/09 23:52:06;;;;;;;16.90;15.60;;;9.70;1.00;;;;;;4850820;29;20580;-39
2023/11/09 23:54:34;;;;;;;15.60;14.70;;;9.70;99.90;;;;;;4859073;29;20449;-39
2023/11/09 23:57:00;;;;;;;15.87;14.87;;;9.70;99.90;;;;;;4849145;29;20445;-39
2023/11/09 23:59:25;;;;;;;15.53;14.53;;;9.60;99.90;;;;;;4859209;29;20421;-39
